Rock Springs, WY (82901)

3:40 AM MDT on August 27, 2014 (GMT -0600)
Rock Springs-Sweetwater | Change Station
CLOSE
Current Station
Airport
Location: Rock Springs,
Elevation: 6759 ft
Nearby Weather Stations

Elev 6759 ft 41.59 °N, 109.05 °W | Updated 46 minutes ago

Partly Cloudy
Partly Cloudy
53 °F
Feels Like 53 °F
N
6
Wind Variable Wind from SSE

Today
High -- | Low -- °F
--% Chance of Precip.
Yesterday
High -- | Low -- °F
Precip. -- in
6:36 AM 7:56 PM
Waxing Crescent, 3% visible
Pressure 30.05 in
Visibility 10.0 miles
Clouds Few 11000 ft
Dew Point 43 °F
Humidity 69%
Rainfall 0.00 in
Snow Depth Not available.
UV 0 out of 12
Pollen 8.10 out of 12
Air Quality Not available.
Flu Activity Not available.
METAR KRKS 270854Z AUTO 15005KT 10SM FEW110 12/06 A3027 RMK AO2 SLP175 T01170061 58004

More Conditions Fewer Conditions

Pressure 30.05 in
Visibility 10.0 miles
Clouds Few 11000 ft
Dew Point 43 °F
Humidity 69%
Rainfall 0.00 in
Snow Depth Not available.
UV 0 out of 12
Pollen 8.10 out of 12
Air Quality Not available.
Flu Activity Not available.
METAR KRKS 270854Z AUTO 15005KT 10SM FEW110 12/06 A3027 RMK AO2 SLP175 T01170061 58004

More Conditions Fewer Conditions

10-Day Weather Forecast

Almanac

Astronomy

Aug. 27, 2014 Rise Set
Actual Time 6:36 AM MDT 7:56 PM MDT
Civil Twilight 6:07 AM MDT 8:25 PM MDT
Nautical Twilight 5:33 AM MDT 9:00 PM MDT
Astronomical Twilight 4:56 AM MDT 9:36 PM MDT
Moon 8:38 AM MDT 8:48 PM MDT
Length of Visible Light 14h 17m
Length of Day
13h 20m
Tomorrow will be 2m 38s shorter.
Waxing Crescent, 3% of the Moon is Illuminated
Today
Waxing Crescent
Sep 2
First Quarter
Sep 8
Full
Sep 15
Last Quarter
Sep 24
New

Today's Extremes

State Highs State Lows

Community

WunderPhotos

Upload Photos

1,747,661 photos uploaded!

Nearby

Snow Depth

Station Depth Elevation
Big Sandy Opening 1 in 9080 ft
Sage Creek Basin 0 in 7850 ft
Divide Peak 0 in 8860 ft
Battle Mountain 0 in 7440 ft
Hams Fork 0 in 7840 ft

Earthquake Activity

City Distance Mag. Time & Date
No recent earthquake activity has been reported nearby.
Minimum magnitude displayed is 2.5.

Coastal Water Temperatures

Place Temperature
No Stations Reporting

Nearby Weather Stations